createdAt,value
2019-05-02T08:00:38.676Z,76.26
2019-05-02T08:01:38.617Z,75.24
2019-05-02T08:02:38.614Z,75.71
2019-05-02T08:03:38.593Z,75.62
2019-05-02T08:04:38.585Z,74.90
2019-05-02T08:05:38.585Z,74.87
2019-05-02T08:06:40.174Z,74.56
2019-05-02T08:07:39.577Z,74.42
2019-05-02T08:08:38.620Z,75.04
2019-05-02T08:09:39.153Z,73.60
2019-05-02T08:10:39.546Z,74.42
2019-05-02T08:11:38.682Z,75.51
2019-05-02T08:12:38.687Z,75.10
2019-05-02T08:13:38.487Z,73.03
2019-05-02T08:14:38.512Z,72.69
2019-05-02T08:15:38.485Z,71.97
2019-05-02T08:16:38.456Z,71.26
2019-05-02T08:17:38.449Z,70.85
2019-05-02T08:18:38.516Z,72.48
2019-05-02T08:19:41.857Z,72.48
2019-05-02T08:20:38.412Z,72.55
2019-05-02T08:21:38.458Z,72.04
2019-05-02T08:22:38.475Z,71.63
2019-05-02T08:23:38.380Z,72.34
2019-05-02T08:24:39.325Z,70.21
2019-05-02T08:25:41.522Z,70.89
2019-05-02T08:26:39.345Z,73.36
2019-05-02T08:27:38.333Z,73.23
2019-05-02T08:28:38.319Z,72.92
2019-05-02T08:29:38.319Z,72.92
2019-05-02T08:30:40.513Z,72.52
2019-05-02T08:31:38.304Z,72.28
2019-05-02T08:32:38.277Z,71.97
2019-05-02T08:33:38.262Z,72.48
2019-05-02T08:34:38.257Z,71.67
2019-05-02T08:35:38.249Z,70.54
2019-05-02T08:36:38.267Z,70.85
2019-05-02T08:37:41.237Z,71.12
2019-05-02T08:38:38.206Z,71.02
2019-05-02T08:39:38.198Z,72.62
2019-05-02T08:40:42.286Z,72.82
2019-05-02T08:41:39.204Z,71.91
2019-05-02T08:42:38.162Z,72.08
2019-05-02T08:43:43.253Z,71.77
2019-05-02T08:44:50.349Z,72.34
2019-05-02T08:45:39.639Z,72.75
2019-05-02T08:46:38.119Z,71.26
2019-05-02T08:47:38.142Z,69.56
2019-05-02T08:48:41.812Z,69.84
2019-05-02T08:49:39.087Z,68.31
2019-05-02T08:50:38.074Z,68.62
2019-05-02T08:51:38.086Z,69.43
2019-05-02T08:52:42.195Z,68.82
2019-05-02T08:53:38.073Z,69.32
2019-05-02T08:54:38.061Z,70.86
2019-05-02T08:55:41.236Z,70.41
2019-05-02T08:56:39.007Z,67.97
2019-05-02T08:57:37.999Z,68.48
2019-05-02T08:58:38.009Z,69.29
2019-05-02T08:59:40.722Z,70.07
2019-05-02T09:00:39.584Z,70.18
2019-05-02T09:01:37.955Z,70.48
2019-05-02T09:02:41.420Z,69.02
2019-05-02T09:03:54.842Z,67.97
2019-05-02T09:04:38.949Z,67.30
2019-05-02T09:05:45.626Z,67.47
2019-05-02T09:06:38.896Z,68.72
2019-05-02T09:07:39.374Z,66.49
2019-05-02T09:08:37.877Z,67.16
2019-05-02T09:09:37.871Z,68.18
2019-05-02T09:10:42.195Z,67.57
2019-05-02T09:11:38.840Z,67.16
2019-05-02T09:12:42.039Z,68.79
2019-05-02T09:13:38.815Z,67.06
2019-05-02T09:14:37.803Z,66.76
2019-05-02T09:15:40.256Z,67.40
2019-05-02T09:16:38.844Z,67.83
2019-05-02T09:17:38.835Z,68.52
2019-05-02T09:18:44.835Z,67.71
2019-05-02T09:19:38.750Z,67.47
2019-05-02T09:20:37.741Z,66.25
2019-05-02T09:21:37.735Z,66.72
2019-05-02T09:22:37.768Z,64.73
2019-05-02T09:23:37.711Z,66.76
2019-05-02T09:24:37.696Z,65.81
2019-05-02T09:25:37.690Z,65.71
2019-05-02T09:26:38.736Z,65.91
2019-05-02T09:27:37.667Z,66.69
2019-05-02T09:28:37.768Z,65.37
2019-05-02T09:29:44.429Z,64.36
2019-05-02T09:30:38.628Z,65.68
2019-05-02T09:31:42.238Z,66.29
2019-05-02T09:32:38.609Z,65.78
2019-05-02T09:33:45.233Z,64.67
2019-05-02T09:34:38.625Z,64.67
2019-05-02T09:35:37.591Z,64.06
2019-05-02T09:36:38.201Z,65.78
2019-05-02T09:37:37.552Z,65.75
2019-05-02T09:38:37.544Z,66.36
2019-05-02T09:39:37.534Z,65.82
2019-05-02T09:40:37.557Z,64.20
2019-05-02T09:41:37.529Z,65.21
2019-05-02T09:42:37.501Z,65.11
2019-05-02T09:43:39.066Z,65.01
2019-05-02T09:44:37.500Z,62.48
2019-05-02T09:45:39.501Z,64.20
2019-05-02T09:46:37.498Z,63.89
2019-05-02T09:47:53.201Z,64.81
2019-05-02T09:48:38.430Z,65.42
2019-05-02T09:49:43.547Z,65.31
2019-05-02T09:50:38.613Z,62.60
2019-05-02T09:51:37.399Z,61.18
2019-05-02T09:52:39.669Z,62.60
2019-05-02T09:53:37.378Z,62.27
2019-05-02T09:54:42.446Z,62.48
2019-05-02T09:55:42.366Z,61.36
2019-05-02T09:56:37.362Z,62.27
2019-05-02T09:57:37.341Z,62.68
2019-05-02T09:58:37.360Z,62.81
2019-05-02T09:59:37.314Z,64.43
2019-05-02T10:00:37.310Z,64.20
2019-05-02T10:01:37.291Z,66.13
2019-05-02T10:02:37.317Z,64.37
2019-05-02T10:03:37.276Z,63.66
2019-05-02T10:04:37.299Z,63.69
2019-05-02T10:05:37.246Z,63.59
2019-05-02T10:06:37.232Z,62.37
2019-05-02T10:07:37.221Z,61.36
2019-05-02T10:08:38.319Z,62.17
2019-05-02T10:09:38.259Z,61.83
2019-05-02T10:10:41.840Z,60.93
2019-05-02T10:11:38.178Z,61.13
2019-05-02T10:12:37.177Z,61.36
2019-05-02T10:13:37.164Z,62.88
2019-05-02T10:14:37.146Z,61.46
2019-05-02T10:15:37.194Z,61.53
2019-05-02T10:16:37.132Z,61.63
2019-05-02T10:17:37.536Z,61.74
2019-05-02T10:18:37.105Z,62.62
2019-05-02T10:19:41.141Z,62.72
2019-05-02T10:20:38.117Z,63.63
2019-05-02T10:21:37.099Z,63.93
2019-05-02T10:22:39.352Z,64.64
2019-05-02T10:23:37.051Z,65.56
2019-05-02T10:24:37.041Z,62.79
2019-05-02T10:25:38.990Z,62.29
2019-05-02T10:26:38.044Z,62.35
2019-05-02T10:27:38.508Z,62.56
2019-05-02T10:28:41.779Z,61.95
2019-05-02T10:29:37.984Z,60.94
2019-05-02T10:30:36.973Z,61.04
2019-05-02T10:31:37.814Z,60.71
2019-05-02T10:32:36.998Z,61.24
2019-05-02T10:33:37.672Z,62.73
2019-05-02T10:34:36.940Z,60.33
2019-05-02T10:35:40.582Z,61.35
2019-05-02T10:36:36.912Z,62.66
2019-05-02T10:37:38.193Z,61.11
2019-05-02T10:38:36.923Z,60.81
2019-05-02T10:39:37.958Z,61.19
2019-05-02T10:40:36.891Z,60.17
2019-05-02T10:41:39.644Z,59.16
2019-05-02T10:42:36.842Z,59.27
2019-05-02T10:43:36.833Z,58.93
2019-05-02T10:44:36.867Z,59.00
2019-05-02T10:45:36.812Z,59.11
2019-05-02T10:46:37.918Z,59.18
2019-05-02T10:47:36.788Z,60.29
2019-05-02T10:48:36.783Z,59.91
2019-05-02T10:49:36.767Z,59.11
2019-05-02T10:50:36.806Z,58.23
2019-05-02T10:51:41.755Z,58.63
2019-05-02T10:52:37.771Z,58.96
2019-05-02T10:53:36.731Z,60.27
2019-05-02T10:54:37.458Z,59.44
2019-05-02T10:55:36.702Z,60.05
2019-05-02T10:56:36.720Z,59.54
2019-05-02T10:57:36.699Z,57.18
2019-05-02T10:58:36.670Z,57.59
2019-05-02T10:59:36.696Z,58.17
2019-05-02T11:00:36.646Z,58.95
2019-05-02T11:01:36.637Z,58.54
2019-05-02T11:02:36.673Z,56.65
2019-05-02T11:03:38.003Z,57.29
2019-05-02T11:04:37.616Z,57.11
2019-05-02T11:05:37.410Z,56.40
2019-05-02T11:06:37.143Z,56.38
2019-05-02T11:07:37.623Z,57.49
2019-05-02T11:08:40.958Z,56.98
2019-05-02T11:09:37.551Z,56.96
2019-05-02T11:10:36.537Z,56.05
2019-05-02T11:11:36.561Z,56.56
2019-05-02T11:12:44.514Z,56.76
2019-05-02T11:13:37.544Z,57.43
2019-05-02T11:14:36.499Z,56.20
2019-05-02T11:15:36.483Z,55.90
2019-05-02T11:16:36.471Z,56.73
2019-05-02T11:17:36.681Z,56.50
2019-05-02T11:18:41.885Z,55.84
2019-05-02T11:19:37.499Z,56.04
2019-05-02T11:20:36.428Z,54.36
2019-05-02T11:21:36.424Z,56.17
2019-05-02T11:22:36.410Z,54.23
2019-05-02T11:23:36.426Z,53.58
2019-05-02T11:24:36.434Z,54.08
2019-05-02T11:25:36.432Z,52.74
2019-05-02T11:26:36.395Z,53.85
2019-05-02T11:27:36.354Z,54.23
2019-05-02T11:28:36.355Z,56.15
2019-05-02T11:29:36.346Z,54.86
2019-05-02T11:30:36.324Z,55.29
2019-05-02T11:31:36.351Z,54.48
2019-05-02T11:32:36.410Z,54.48
2019-05-02T11:33:36.291Z,54.36
2019-05-02T11:34:36.279Z,54.13
2019-05-02T11:35:36.277Z,54.63
2019-05-02T11:36:36.256Z,55.94
2019-05-02T11:37:36.296Z,55.62
2019-05-02T11:38:36.918Z,54.71
2019-05-02T11:39:45.377Z,54.61
2019-05-02T11:40:37.247Z,53.52
2019-05-02T11:41:36.204Z,54.66
2019-05-02T11:42:36.198Z,54.03
2019-05-02T11:43:37.249Z,55.84
2019-05-02T11:44:37.169Z,53.50
2019-05-02T11:45:36.167Z,53.80
2019-05-02T11:46:37.497Z,53.88
2019-05-02T11:47:37.137Z,53.60
2019-05-02T11:48:36.128Z,54.10
2019-05-02T11:49:36.161Z,53.90
2019-05-02T11:50:36.107Z,53.40
2019-05-02T11:51:36.091Z,53.90
2019-05-02T11:52:37.564Z,53.47
2019-05-02T11:53:36.070Z,53.05
2019-05-02T11:54:39.318Z,51.64
2019-05-02T11:55:37.100Z,52.11
2019-05-02T11:56:36.042Z,50.93
2019-05-02T11:57:36.029Z,50.91
2019-05-02T11:58:41.806Z,52.26
2019-05-02T11:59:37.004Z,52.24
2019-05-02T12:00:39.727Z,50.38
2019-05-02T12:01:39.796Z,48.97
2019-05-02T12:02:35.984Z,49.57
2019-05-02T12:03:37.086Z,50.05
2019-05-02T12:04:35.974Z,48.10
2019-05-02T12:05:39.048Z,48.93
2019-05-02T12:06:35.932Z,47.92
2019-05-02T12:07:35.955Z,48.10
2019-05-02T12:08:39.345Z,46.85
2019-05-02T12:09:36.905Z,47.73
2019-05-02T12:10:36.758Z,46.85
2019-05-02T12:11:35.909Z,47.96
2019-05-02T12:12:36.371Z,45.97
2019-05-02T12:13:35.899Z,47.02
2019-05-02T12:14:36.506Z,49.05
2019-05-02T12:15:35.846Z,47.75
2019-05-02T12:16:35.833Z,47.85
2019-05-02T12:17:35.821Z,46.97
2019-05-02T12:18:35.865Z,48.00
2019-05-02T12:19:35.838Z,47.70
2019-05-02T12:20:36.807Z,49.25
2019-05-02T12:21:35.779Z,48.05
2019-05-02T12:22:35.775Z,47.32
2019-05-02T12:23:36.425Z,45.97
2019-05-02T12:24:36.464Z,46.49
2019-05-02T12:25:35.922Z,46.92
2019-05-02T12:26:35.723Z,49.13
2019-05-02T12:27:35.727Z,48.75
2019-05-02T12:28:35.699Z,48.09
2019-05-02T12:29:35.695Z,49.30
2019-05-02T12:30:37.724Z,49.50
2019-05-02T12:31:35.717Z,48.77
2019-05-02T12:32:35.673Z,48.55
2019-05-02T12:33:35.668Z,48.65
2019-05-02T12:34:35.636Z,47.24
2019-05-02T12:35:35.875Z,49.05
2019-05-02T12:36:35.881Z,48.83
2019-05-02T12:37:35.647Z,47.72
2019-05-02T12:38:35.600Z,47.62
2019-05-02T12:39:35.588Z,48.72
2019-05-02T12:40:35.597Z,47.80
2019-05-02T12:41:35.571Z,46.57
2019-05-02T12:42:35.812Z,47.58
2019-05-02T12:43:35.591Z,44.99
2019-05-02T12:44:35.531Z,45.49
2019-05-02T12:45:35.522Z,45.77
2019-05-02T12:46:35.539Z,44.67
2019-05-02T12:47:35.502Z,44.89
2019-05-02T12:48:35.505Z,43.58
2019-05-02T12:49:35.528Z,44.51
2019-05-02T12:50:35.481Z,44.32
2019-05-02T12:51:35.467Z,45.43
2019-05-02T12:52:35.452Z,45.75
2019-05-02T12:53:35.443Z,48.32
2019-05-02T12:54:35.448Z,49.90
2019-05-02T12:55:35.481Z,48.77
2019-05-02T12:56:36.385Z,47.36
2019-05-02T12:57:35.398Z,47.79
2019-05-02T12:58:35.382Z,48.39
2019-05-02T12:59:35.373Z,48.90
2019-05-02T13:00:35.422Z,47.11
2019-05-02T13:01:35.390Z,45.62
2019-05-02T13:02:35.349Z,46.40
2019-05-02T13:03:35.330Z,47.91
2019-05-02T13:04:35.370Z,46.88
2019-05-02T13:05:35.306Z,45.59
2019-05-02T13:06:37.115Z,44.97
2019-05-02T13:07:35.353Z,45.45
2019-05-02T13:08:35.286Z,45.15
2019-05-02T13:09:35.265Z,45.53
2019-05-02T13:10:35.254Z,45.13
2019-05-02T13:11:36.829Z,45.01
2019-05-02T13:12:36.331Z,44.83
2019-05-02T13:13:35.219Z,44.23
2019-05-02T13:14:35.207Z,44.53
2019-05-02T13:15:35.203Z,44.93
2019-05-02T13:16:35.182Z,46.94
2019-05-02T13:17:42.819Z,45.15
2019-05-02T13:18:37.225Z,44.93
2019-05-02T13:19:39.894Z,44.93
2019-05-02T13:20:38.296Z,44.23
2019-05-02T13:21:42.223Z,44.53
2019-05-02T13:22:36.182Z,45.33
2019-05-02T13:23:37.162Z,46.01
2019-05-02T13:24:35.177Z,46.92
2019-05-02T13:25:36.871Z,44.18
2019-05-02T13:26:35.076Z,43.82
2019-05-02T13:27:43.274Z,45.83
2019-05-02T13:28:36.084Z,43.10
2019-05-02T13:29:35.041Z,44.18
2019-05-02T13:30:42.797Z,42.46
2019-05-02T13:31:36.027Z,42.74
2019-05-02T13:32:35.007Z,42.33
2019-05-02T13:33:35.954Z,41.23
2019-05-02T13:34:34.987Z,40.53
2019-05-02T13:35:34.975Z,42.02
2019-05-02T13:36:35.005Z,40.29
2019-05-02T13:37:35.086Z,39.97
2019-05-02T13:38:34.955Z,38.87
2019-05-02T13:39:34.935Z,39.07
2019-05-02T13:40:34.928Z,38.57
2019-05-02T13:41:34.944Z,37.77
2019-05-02T13:42:34.943Z,37.15
2019-05-02T13:43:34.894Z,39.22
2019-05-02T13:44:34.881Z,37.93
2019-05-02T13:45:34.896Z,38.63
2019-05-02T13:46:34.863Z,38.42
2019-05-02T13:47:34.852Z,37.29
2019-05-02T13:48:34.982Z,36.61
2019-05-02T13:49:34.833Z,37.21
2019-05-02T13:50:34.817Z,37.21
2019-05-02T13:51:36.550Z,38.25
2019-05-02T13:52:34.805Z,38.17
2019-05-02T13:53:34.788Z,38.37
2019-05-02T13:54:34.810Z,39.05
2019-05-02T13:55:34.767Z,39.45
2019-05-02T13:56:34.755Z,38.85
2019-05-02T13:57:41.733Z,38.05
2019-05-02T13:58:35.755Z,37.05
2019-05-02T13:59:34.731Z,37.85
2019-05-02T14:00:34.751Z,38.83
2019-05-02T14:01:34.703Z,38.23
2019-05-02T14:02:34.693Z,37.83
2019-05-02T14:03:34.683Z,38.61
2019-05-02T14:04:34.700Z,36.53
2019-05-02T14:05:34.662Z,38.05
2019-05-02T14:06:37.984Z,38.85
2019-05-02T14:07:34.650Z,39.23
2019-05-02T14:08:36.876Z,38.13
2019-05-02T14:09:34.626Z,38.87
2019-05-02T14:10:39.240Z,38.13
2019-05-02T14:11:35.663Z,38.42
2019-05-02T14:12:34.591Z,37.11
2019-05-02T14:13:34.583Z,38.63
2019-05-02T14:14:34.600Z,39.15
2019-05-02T14:15:34.576Z,38.45
2019-05-02T14:16:34.555Z,39.25
2019-05-02T14:17:34.601Z,37.87
2019-05-02T14:18:34.534Z,38.87
2019-05-02T14:19:34.524Z,40.31
2019-05-02T14:20:37.263Z,41.13
2019-05-02T14:21:34.506Z,41.01
2019-05-02T14:22:34.516Z,39.09
2019-05-02T14:23:34.523Z,39.18
2019-05-02T14:24:34.468Z,39.37
2019-05-02T14:25:34.463Z,41.09
2019-05-02T14:26:34.455Z,40.73
2019-05-02T14:27:34.443Z,42.30
2019-05-02T14:28:36.432Z,44.23
2019-05-02T14:29:34.488Z,45.33
2019-05-02T14:30:39.358Z,46.56
2019-05-02T14:31:35.394Z,45.86
2019-05-02T14:32:34.423Z,45.75
2019-05-02T14:33:34.379Z,45.35
2019-05-02T14:34:34.368Z,44.37
2019-05-02T14:35:36.295Z,44.47
2019-05-02T14:36:34.356Z,44.55
2019-05-02T14:37:34.338Z,45.67
2019-05-02T14:38:34.322Z,45.55
2019-05-02T14:39:34.315Z,46.23
2019-05-02T14:40:34.304Z,43.24
2019-05-02T14:41:40.900Z,44.24
2019-05-02T14:42:35.301Z,43.22
2019-05-02T14:43:38.257Z,43.52
2019-05-02T14:45:01.373Z,43.60
2019-05-02T14:45:35.272Z,43.06
2019-05-02T14:46:39.323Z,41.91
2019-05-02T14:47:35.309Z,40.69
2019-05-02T14:48:41.082Z,40.27
2019-05-02T14:49:35.388Z,41.27
2019-05-02T14:50:36.573Z,42.11
2019-05-02T14:51:36.740Z,43.94
2019-05-02T14:52:37.150Z,43.96
2019-05-02T14:53:35.931Z,43.96
2019-05-02T14:54:38.035Z,44.99
2019-05-02T14:55:35.139Z,45.09
2019-05-02T14:56:37.717Z,45.21
2019-05-02T14:57:35.139Z,44.71
2019-05-02T14:58:37.723Z,45.83
2019-05-02T14:59:34.141Z,46.46
2019-05-02T15:00:39.433Z,47.06
2019-05-02T15:01:35.090Z,47.08
2019-05-02T15:02:34.610Z,46.88
2019-05-02T15:03:34.069Z,48.82
2019-05-02T15:04:38.320Z,49.32
2019-05-02T15:05:35.057Z,48.56
2019-05-02T15:06:38.420Z,50.27
2019-05-02T15:07:35.010Z,50.50
2019-05-02T15:08:36.727Z,49.99
2019-05-02T15:09:36.316Z,49.09
2019-05-02T15:10:38.806Z,49.99
2019-05-02T15:11:35.152Z,50.60
2019-05-02T15:12:33.954Z,50.10
2019-05-02T15:13:40.115Z,50.37
2019-05-02T15:14:34.945Z,50.78
2019-05-02T15:15:40.664Z,51.20
2019-05-02T15:16:42.287Z,51.81
2019-05-02T15:17:37.809Z,51.03
2019-05-02T15:18:33.890Z,51.93
2019-05-02T15:19:33.878Z,51.03
2019-05-02T15:20:39.247Z,52.14
2019-05-02T15:21:35.019Z,52.24
2019-05-02T15:22:37.410Z,52.97
2019-05-02T15:23:33.866Z,52.47
2019-05-02T15:24:37.433Z,54.18
2019-05-02T15:25:33.816Z,54.21
2019-05-02T15:26:35.621Z,53.00
2019-05-02T15:27:42.277Z,54.13
2019-05-02T15:28:37.378Z,55.34
2019-05-02T15:29:33.767Z,56.58
2019-05-02T15:30:37.250Z,60.35
2019-05-02T15:31:34.745Z,65.80
2019-05-02T15:32:37.278Z,67.76
2019-05-02T15:33:34.728Z,70.35
2019-05-02T15:34:35.567Z,71.40
2019-05-02T15:35:35.968Z,71.94
2019-05-02T15:36:37.062Z,73.06
2019-05-02T15:37:35.954Z,74.21
2019-05-02T15:38:37.279Z,75.67
2019-05-02T15:40:43.485Z,75.46
2019-05-02T15:41:34.636Z,75.49
2019-05-02T15:42:33.655Z,75.84
2019-05-02T15:43:33.618Z,77.40
2019-05-02T15:44:33.611Z,78.11
2019-05-02T15:45:36.817Z,78.55
2019-05-02T15:46:34.582Z,79.91
2019-05-02T15:47:36.969Z,79.50
2019-05-02T15:48:34.577Z,80.52
2019-05-02T15:49:36.681Z,82.46
2019-05-02T15:50:34.592Z,82.15
2019-05-02T15:51:33.538Z,82.19
2019-05-02T15:52:33.515Z,82.90
2019-05-02T15:53:33.507Z,81.99
2019-05-02T15:54:33.497Z,82.29
2019-05-02T15:55:39.562Z,83.15
2019-05-02T15:56:35.658Z,82.84
2019-05-02T15:57:42.807Z,84.27
2019-05-02T15:58:34.449Z,85.08
2019-05-02T15:59:37.690Z,85.39
2019-05-02T16:00:34.433Z,85.84
2019-05-02T16:01:36.602Z,87.43
2019-05-02T16:02:34.500Z,87.47
2019-05-02T16:03:34.390Z,86.76
2019-05-02T16:04:34.386Z,86.86
2019-05-02T16:05:36.512Z,87.67
2019-05-02T16:06:34.382Z,86.65
2019-05-02T16:07:33.351Z,87.77
2019-05-02T16:08:33.476Z,87.16
2019-05-02T16:09:33.334Z,87.16
2019-05-02T16:10:38.471Z,88.08
2019-05-02T16:11:34.320Z,87.47
2019-05-02T16:12:36.066Z,86.96
2019-05-02T16:13:33.293Z,88.08
2019-05-02T16:14:35.938Z,88.12
2019-05-02T16:15:33.295Z,89.10
2019-05-02T16:16:36.572Z,87.57
2019-05-02T16:17:34.244Z,87.67
2019-05-02T16:18:36.011Z,88.84
2019-05-02T16:19:34.258Z,87.51
2019-05-02T16:20:33.210Z,87.30
2019-05-02T16:21:33.206Z,88.22
2019-05-02T16:22:33.189Z,87.96
2019-05-02T16:23:35.644Z,87.76
2019-05-02T16:24:33.220Z,88.98
2019-05-02T16:25:34.080Z,89.49
2019-05-02T16:26:35.276Z,88.98
2019-05-02T16:27:34.145Z,89.69
2019-05-02T16:28:36.828Z,90.51
2019-05-02T16:29:34.159Z,89.90
2019-05-02T16:30:36.995Z,90.92
2019-05-02T16:31:34.134Z,90.86
2019-05-02T16:32:35.681Z,90.14
2019-05-02T16:33:33.069Z,90.86
2019-05-02T16:34:35.309Z,90.35
2019-05-02T16:35:33.091Z,91.06
2019-05-02T16:36:37.409Z,92.19
2019-05-02T16:37:33.067Z,91.11
2019-05-02T16:38:34.955Z,91.98
2019-05-02T16:39:33.001Z,91.37
2019-05-02T16:40:34.918Z,91.11
2019-05-02T16:41:32.981Z,91.31
2019-05-02T16:42:32.969Z,91.92
2019-05-02T16:43:33.012Z,91.52
2019-05-02T16:44:32.982Z,92.43
2019-05-02T16:45:32.946Z,92.33
2019-05-02T16:46:32.999Z,93.15
2019-05-02T16:47:32.982Z,93.96
2019-05-02T16:48:37.622Z,92.99
2019-05-02T16:49:34.010Z,92.84
2019-05-02T16:50:36.663Z,93.80
2019-05-02T16:51:34.603Z,93.55
2019-05-02T16:52:32.859Z,93.60
2019-05-02T16:53:33.395Z,94.01
2019-05-02T16:54:34.548Z,94.52
2019-05-02T16:55:33.883Z,94.27
2019-05-02T16:56:36.928Z,94.27
2019-05-02T16:57:35.141Z,93.60
2019-05-02T16:58:33.703Z,94.27
2019-05-02T16:59:34.436Z,94.21
2019-05-02T17:00:37.056Z,94.01
2019-05-02T17:01:33.865Z,94.32
2019-05-02T17:02:32.759Z,93.80
2019-05-02T17:03:32.750Z,94.42
2019-05-02T17:04:32.730Z,94.93
2019-05-02T17:05:32.717Z,94.82
2019-05-02T17:06:32.709Z,95.44
2019-05-02T17:07:34.930Z,95.13
2019-05-02T17:08:33.684Z,95.44
2019-05-02T17:09:33.541Z,95.75
2019-05-02T17:10:35.045Z,95.54
2019-05-02T17:11:35.800Z,96.46
2019-05-02T17:12:32.643Z,96.30
2019-05-02T17:13:35.629Z,96.36
2019-05-02T17:14:32.653Z,96.56
2019-05-02T17:15:35.422Z,96.87
2019-05-02T17:16:32.601Z,96.46
2019-05-02T17:17:34.871Z,96.87
2019-05-02T17:18:32.750Z,96.67
2019-05-02T17:19:34.789Z,96.36
2019-05-02T17:20:32.556Z,96.67
2019-05-02T17:21:52.248Z,96.77
2019-05-02T17:22:33.534Z,97.38
2019-05-02T17:23:32.863Z,97.58
2019-05-02T17:24:32.511Z,97.58
2019-05-02T17:25:32.586Z,97.49
2019-05-02T17:26:32.489Z,97.58
2019-05-02T17:27:32.588Z,97.17
2019-05-02T17:28:32.467Z,97.28
2019-05-02T17:29:32.564Z,97.13
2019-05-02T17:30:38.617Z,96.46
2019-05-02T17:31:33.465Z,96.51
2019-05-02T17:32:34.146Z,96.31
2019-05-02T17:33:33.441Z,96.72
2019-05-02T17:34:34.867Z,95.85
2019-05-02T17:35:32.633Z,95.34
2019-05-02T17:36:32.635Z,94.93
2019-05-02T17:37:32.603Z,95.44
2019-05-02T17:38:32.387Z,95.13
2019-05-02T17:39:32.349Z,95.85
2019-05-02T17:40:32.346Z,95.54
2019-05-02T17:41:32.328Z,95.34
2019-05-02T17:42:32.435Z,96.46
2019-05-02T17:43:32.951Z,96.26
2019-05-02T17:44:32.325Z,96.15
2019-05-02T17:45:33.570Z,95.64
2019-05-02T17:46:33.273Z,96.26
2019-05-02T17:47:36.059Z,96.15
2019-05-02T17:48:34.751Z,96.36
2019-05-02T17:49:36.682Z,96.97
2019-05-02T17:50:32.957Z,96.56
2019-05-02T17:51:35.755Z,96.87
2019-05-02T17:52:33.226Z,96.46
2019-05-02T17:53:33.777Z,96.87
2019-05-02T17:54:33.225Z,96.97
2019-05-02T17:55:40.148Z,96.97
2019-05-02T17:56:33.165Z,96.97
2019-05-02T17:57:33.337Z,96.87
2019-05-02T17:58:32.145Z,96.87
2019-05-02T17:59:36.054Z,97.08
2019-05-02T18:00:33.464Z,96.67
2019-05-02T18:01:35.025Z,96.36
2019-05-02T18:02:32.104Z,97.02
2019-05-02T18:03:35.237Z,96.97
2019-05-02T18:04:32.533Z,97.28
2019-05-02T18:05:35.656Z,96.67
2019-05-02T18:06:35.309Z,95.79
2019-05-02T18:07:36.117Z,95.69
2019-05-02T18:08:32.384Z,96.20
2019-05-02T18:09:35.022Z,95.28
2019-05-02T18:10:32.349Z,95.48
2019-05-02T18:11:36.394Z,95.48
2019-05-02T18:12:33.042Z,95.89
2019-05-02T18:13:33.986Z,95.48
2019-05-02T18:14:31.974Z,95.48
2019-05-02T18:15:34.686Z,96.34
2019-05-02T18:16:32.418Z,95.73
2019-05-02T18:17:31.934Z,95.84
2019-05-02T18:18:32.114Z,95.73
2019-05-02T18:19:31.913Z,96.25
2019-05-02T18:20:32.475Z,96.34
2019-05-02T18:21:32.355Z,96.25
2019-05-02T18:22:34.677Z,96.14
2019-05-02T18:23:32.243Z,96.04
2019-05-02T18:24:32.800Z,96.25
2019-05-02T18:25:31.861Z,96.34
2019-05-02T18:26:31.884Z,95.73
2019-05-02T18:27:31.839Z,96.25
2019-05-02T18:28:31.828Z,96.75
2019-05-02T18:29:36.249Z,96.55
2019-05-02T18:30:32.834Z,96.55
2019-05-02T18:31:34.805Z,96.86
2019-05-02T18:32:32.789Z,96.25
2019-05-02T18:33:35.845Z,96.55
2019-05-02T18:34:32.759Z,96.66
2019-05-02T18:35:32.543Z,96.75
2019-05-02T18:36:32.110Z,96.66
2019-05-02T18:37:32.558Z,96.75
2019-05-02T18:38:32.414Z,97.16
2019-05-02T18:39:34.874Z,97.47
2019-05-02T18:40:32.699Z,97.47
2019-05-02T18:41:31.901Z,97.47
2019-05-02T18:42:31.826Z,97.37
2019-05-02T18:43:36.091Z,97.88
2019-05-02T18:44:32.673Z,97.78
2019-05-02T18:45:31.947Z,97.47
2019-05-02T18:46:31.670Z,97.67
2019-05-02T18:47:33.490Z,98.19
2019-05-02T18:48:31.944Z,98.29
2019-05-02T18:49:32.133Z,98.19
2019-05-02T18:50:32.022Z,98.08
2019-05-02T18:51:32.047Z,97.67
2019-05-02T18:52:38.347Z,98.19
2019-05-02T18:53:32.785Z,98.39
2019-05-02T18:54:31.550Z,98.29
2019-05-02T18:55:31.808Z,98.19
2019-05-02T18:56:34.288Z,98.70
2019-05-02T18:57:32.503Z,98.39
2019-05-02T18:58:31.988Z,98.39
2019-05-02T18:59:32.024Z,98.29
2019-05-02T19:00:37.852Z,98.80
2019-05-02T19:01:32.456Z,98.90
2019-05-02T19:02:34.387Z,98.29
2019-05-02T19:03:33.250Z,98.29
2019-05-02T19:04:38.246Z,98.49
2019-05-02T19:05:32.654Z,98.29
2019-05-02T19:06:33.230Z,98.39
2019-05-02T19:07:35.617Z,98.29
2019-05-02T19:08:38.777Z,98.19
2019-05-02T19:09:33.176Z,98.19
2019-05-02T19:10:32.400Z,98.39
2019-05-02T19:11:35.093Z,98.29
2019-05-02T19:12:32.826Z,97.98
2019-05-02T19:13:32.696Z,97.78
2019-05-02T19:14:32.755Z,97.57
2019-05-02T19:15:34.011Z,97.47
2019-05-02T19:16:31.776Z,97.98
2019-05-02T19:17:31.334Z,97.27
2019-05-02T19:18:32.352Z,97.57
2019-05-02T19:19:32.988Z,97.47
2019-05-02T19:20:32.639Z,97.47
2019-05-02T19:21:36.065Z,97.37
2019-05-02T19:22:32.288Z,97.47
2019-05-02T19:23:32.031Z,96.86
2019-05-02T19:24:34.885Z,96.96
2019-05-02T19:25:32.188Z,96.86
2019-05-02T19:26:32.648Z,96.66
2019-05-02T19:27:32.799Z,96.70
2019-05-02T19:28:34.643Z,97.00
2019-05-02T19:29:32.165Z,97.00
2019-05-02T19:30:32.627Z,97.27
2019-05-02T19:31:32.027Z,97.92
2019-05-02T19:32:32.030Z,97.72
2019-05-02T19:33:31.885Z,97.78
2019-05-02T19:34:32.343Z,97.62
2019-05-02T19:35:32.798Z,97.31
2019-05-02T19:36:32.732Z,97.82
2019-05-02T19:37:31.632Z,97.72
2019-05-02T19:38:32.351Z,97.72
2019-05-02T19:39:32.264Z,97.62
2019-05-02T19:40:31.833Z,97.67
2019-05-02T19:41:32.063Z,97.41
2019-05-02T19:42:31.006Z,97.72
2019-05-02T19:43:32.468Z,97.72
2019-05-02T19:44:32.039Z,97.82
2019-05-02T19:45:32.720Z,97.41
2019-05-02T19:46:35.172Z,97.72
2019-05-02T19:47:31.952Z,97.98
2019-05-02T19:48:34.351Z,97.72
2019-05-02T19:49:32.910Z,98.24
2019-05-02T19:50:34.728Z,98.08
2019-05-02T19:51:31.957Z,97.78
2019-05-02T19:52:39.184Z,98.29
2019-05-02T19:53:32.366Z,98.49
2019-05-02T19:54:33.539Z,98.33
2019-05-02T19:55:32.176Z,98.80
2019-05-02T19:56:34.249Z,98.39
2019-05-02T19:57:32.383Z,98.19
2019-05-02T19:58:32.024Z,98.90
2019-05-02T19:59:32.133Z,98.80
2019-05-02T20:00:31.817Z,98.39
2019-05-02T20:01:30.820Z,98.39
2019-05-02T20:02:32.623Z,98.49
2019-05-02T20:03:32.319Z,98.65
2019-05-02T20:04:32.613Z,98.90
2019-05-02T20:05:32.267Z,98.80
2019-05-02T20:06:32.491Z,98.70
2019-05-02T20:07:32.183Z,98.39
2019-05-02T20:08:32.606Z,98.70
2019-05-02T20:09:31.874Z,98.49
2019-05-02T20:10:32.167Z,98.74
2019-05-02T20:11:33.001Z,98.80
2019-05-02T20:12:30.678Z,98.49
2019-05-02T20:13:32.712Z,98.85
2019-05-02T20:14:32.081Z,98.70
2019-05-02T20:15:32.681Z,98.49
2019-05-02T20:16:31.917Z,98.54
2019-05-02T20:17:32.589Z,98.49
2019-05-02T20:18:36.097Z,98.70
2019-05-02T20:19:34.528Z,98.80
2019-05-02T20:20:30.610Z,98.80
2019-05-02T20:21:32.543Z,98.74
2019-05-02T20:22:31.676Z,98.65
2019-05-02T20:23:34.915Z,98.80
2019-05-02T20:24:32.051Z,98.70
2019-05-02T20:25:37.491Z,98.19
2019-05-02T20:26:32.555Z,98.85
2019-05-02T20:27:32.794Z,98.74
2019-05-02T20:28:31.776Z,99.01
2019-05-02T20:29:32.150Z,98.70
2019-05-02T20:30:30.492Z,98.60
2019-05-02T20:31:32.132Z,98.49
2019-05-02T20:32:32.228Z,98.90
2019-05-02T20:33:32.446Z,98.80
2019-05-02T20:34:32.447Z,98.70
2019-05-02T20:35:31.925Z,98.29
2019-05-02T20:36:32.108Z,97.78
2019-05-02T20:37:32.373Z,97.88
2019-05-02T20:38:32.390Z,97.31
2019-05-02T20:39:31.786Z,97.57
2019-05-02T20:40:31.848Z,96.80
2019-05-02T20:41:30.379Z,96.55
2019-05-02T20:42:32.135Z,96.59
2019-05-02T20:43:32.121Z,96.96
2019-05-02T20:44:32.119Z,96.66
2019-05-02T20:45:32.149Z,96.66
2019-05-02T20:46:30.321Z,96.91
2019-05-02T20:47:30.330Z,97.06
2019-05-02T20:48:32.140Z,97.06
2019-05-02T20:49:30.296Z,97.57
2019-05-02T20:50:31.814Z,97.27
2019-05-02T20:51:31.925Z,97.27
2019-05-02T20:52:32.269Z,97.72
2019-05-02T20:53:33.417Z,97.52